sensor_id;sensor_type;location;lat;lon;timestamp;P1;durP1;ratioP1;P2;durP2;ratioP2
12332;SDS011;6232;48.094;11.288;2022-10-16T00:01:43;2.00;;;1.90;;
12332;SDS011;6232;48.094;11.288;2022-10-16T00:04:29;6.93;;;1.90;;
12332;SDS011;6232;48.094;11.288;2022-10-16T00:07:14;2.67;;;2.27;;
12332;SDS011;6232;48.094;11.288;2022-10-16T00:10:00;2.77;;;2.43;;
12332;SDS011;6232;48.094;11.288;2022-10-16T00:12:46;5.00;;;2.20;;
12332;SDS011;6232;48.094;11.288;2022-10-16T00:15:37;4.30;;;2.27;;
12332;SDS011;6232;48.094;11.288;2022-10-16T00:18:24;6.30;;;2.23;;
12332;SDS011;6232;48.094;11.288;2022-10-16T00:21:11;2.23;;;2.03;;
12332;SDS011;6232;48.094;11.288;2022-10-16T00:23:58;2.90;;;2.60;;
12332;SDS011;6232;48.094;11.288;2022-10-16T00:26:44;2.50;;;2.30;;
12332;SDS011;6232;48.094;11.288;2022-10-16T00:29:30;2.30;;;2.10;;
12332;SDS011;6232;48.094;11.288;2022-10-16T00:32:15;2.47;;;2.20;;
12332;SDS011;6232;48.094;11.288;2022-10-16T00:35:01;5.30;;;2.37;;
12332;SDS011;6232;48.094;11.288;2022-10-16T00:37:49;5.20;;;2.57;;
12332;SDS011;6232;48.094;11.288;2022-10-16T00:40:34;3.30;;;2.47;;
12332;SDS011;6232;48.094;11.288;2022-10-16T00:49:08;6.60;;;3.77;;
12332;SDS011;6232;48.094;11.288;2022-10-16T00:51:54;3.93;;;2.33;;
12332;SDS011;6232;48.094;11.288;2022-10-16T00:54:40;2.80;;;2.60;;
12332;SDS011;6232;48.094;11.288;2022-10-16T00:57:26;2.40;;;2.20;;
12332;SDS011;6232;48.094;11.288;2022-10-16T01:00:13;2.83;;;2.63;;
12332;SDS011;6232;48.094;11.288;2022-10-16T01:03:00;2.93;;;2.63;;
12332;SDS011;6232;48.094;11.288;2022-10-16T01:05:49;4.10;;;2.63;;
12332;SDS011;6232;48.094;11.288;2022-10-16T01:08:44;6.07;;;2.50;;
12332;SDS011;6232;48.094;11.288;2022-10-16T01:11:39;3.73;;;2.23;;
12332;SDS011;6232;48.094;11.288;2022-10-16T01:14:32;2.70;;;2.50;;
12332;SDS011;6232;48.094;11.288;2022-10-16T01:31:43;2.50;;;2.30;;
12332;SDS011;6232;48.094;11.288;2022-10-16T01:34:32;2.63;;;2.40;;
12332;SDS011;6232;48.094;11.288;2022-10-16T01:37:22;2.93;;;2.30;;
12332;SDS011;6232;48.094;11.288;2022-10-16T01:40:11;2.80;;;2.50;;
12332;SDS011;6232;48.094;11.288;2022-10-16T01:43:00;5.73;;;1.97;;
12332;SDS011;6232;48.094;11.288;2022-10-16T01:45:48;3.00;;;2.70;;
12332;SDS011;6232;48.094;11.288;2022-10-16T01:48:33;3.00;;;2.70;;
12332;SDS011;6232;48.094;11.288;2022-10-16T01:51:19;2.87;;;2.40;;
12332;SDS011;6232;48.094;11.288;2022-10-16T01:54:07;4.30;;;2.40;;
12332;SDS011;6232;48.094;11.288;2022-10-16T01:56:53;4.30;;;2.63;;
12332;SDS011;6232;48.094;11.288;2022-10-16T01:59:50;2.97;;;2.77;;
12332;SDS011;6232;48.094;11.288;2022-10-16T02:02:38;3.70;;;2.60;;
12332;SDS011;6232;48.094;11.288;2022-10-16T02:05:26;9.10;;;3.73;;
12332;SDS011;6232;48.094;11.288;2022-10-16T02:08:12;3.10;;;2.67;;
12332;SDS011;6232;48.094;11.288;2022-10-16T02:10:59;4.17;;;3.40;;
12332;SDS011;6232;48.094;11.288;2022-10-16T02:13:46;8.07;;;3.40;;
12332;SDS011;6232;48.094;11.288;2022-10-16T02:16:37;7.00;;;2.83;;
12332;SDS011;6232;48.094;11.288;2022-10-16T02:19:23;3.90;;;3.53;;
12332;SDS011;6232;48.094;11.288;2022-10-16T02:22:10;7.80;;;3.43;;
12332;SDS011;6232;48.094;11.288;2022-10-16T02:28:00;5.37;;;3.70;;
12332;SDS011;6232;48.094;11.288;2022-10-16T02:31:06;5.77;;;3.70;;
12332;SDS011;6232;48.094;11.288;2022-10-16T02:33:54;8.50;;;3.10;;
12332;SDS011;6232;48.094;11.288;2022-10-16T02:36:41;6.00;;;3.50;;
12332;SDS011;6232;48.094;11.288;2022-10-16T02:39:31;5.80;;;4.53;;
12332;SDS011;6232;48.094;11.288;2022-10-16T02:42:18;5.23;;;3.60;;
12332;SDS011;6232;48.094;11.288;2022-10-16T02:45:07;5.27;;;3.00;;
12332;SDS011;6232;48.094;11.288;2022-10-16T02:47:53;4.53;;;3.67;;
12332;SDS011;6232;48.094;11.288;2022-10-16T02:50:38;3.40;;;3.10;;
12332;SDS011;6232;48.094;11.288;2022-10-16T02:53:24;8.13;;;3.87;;
12332;SDS011;6232;48.094;11.288;2022-10-16T02:56:09;6.97;;;3.40;;
12332;SDS011;6232;48.094;11.288;2022-10-16T02:58:55;4.83;;;3.37;;
12332;SDS011;6232;48.094;11.288;2022-10-16T03:01:41;5.20;;;3.30;;
12332;SDS011;6232;48.094;11.288;2022-10-16T03:04:26;3.30;;;3.00;;
12332;SDS011;6232;48.094;11.288;2022-10-16T03:07:12;4.27;;;3.00;;
12332;SDS011;6232;48.094;11.288;2022-10-16T03:09:57;3.80;;;3.50;;
12332;SDS011;6232;48.094;11.288;2022-10-16T03:12:45;5.37;;;3.97;;
12332;SDS011;6232;48.094;11.288;2022-10-16T03:15:31;5.00;;;3.63;;
12332;SDS011;6232;48.094;11.288;2022-10-16T03:18:16;4.20;;;3.40;;
12332;SDS011;6232;48.094;11.288;2022-10-16T03:21:02;3.80;;;3.23;;
12332;SDS011;6232;48.094;11.288;2022-10-16T03:23:47;3.93;;;3.57;;
12332;SDS011;6232;48.094;11.288;2022-10-16T03:26:33;4.30;;;3.90;;
12332;SDS011;6232;48.094;11.288;2022-10-16T03:29:19;4.33;;;3.90;;
12332;SDS011;6232;48.094;11.288;2022-10-16T03:32:04;4.33;;;3.63;;
12332;SDS011;6232;48.094;11.288;2022-10-16T03:34:50;5.57;;;3.73;;
12332;SDS011;6232;48.094;11.288;2022-10-16T03:37:35;10.87;;;4.33;;
12332;SDS011;6232;48.094;11.288;2022-10-16T03:40:21;4.50;;;4.10;;
12332;SDS011;6232;48.094;11.288;2022-10-16T03:43:07;4.63;;;3.63;;
12332;SDS011;6232;48.094;11.288;2022-10-16T03:45:52;4.90;;;3.50;;
12332;SDS011;6232;48.094;11.288;2022-10-16T03:48:38;4.77;;;4.27;;
12332;SDS011;6232;48.094;11.288;2022-10-16T03:51:25;8.20;;;4.47;;
12332;SDS011;6232;48.094;11.288;2022-10-16T03:54:10;11.10;;;3.53;;
12332;SDS011;6232;48.094;11.288;2022-10-16T03:56:56;4.03;;;3.63;;
12332;SDS011;6232;48.094;11.288;2022-10-16T03:59:41;4.10;;;3.40;;
12332;SDS011;6232;48.094;11.288;2022-10-16T04:02:27;5.23;;;3.17;;
12332;SDS011;6232;48.094;11.288;2022-10-16T04:05:12;4.37;;;3.70;;
12332;SDS011;6232;48.094;11.288;2022-10-16T04:07:58;5.50;;;3.73;;
12332;SDS011;6232;48.094;11.288;2022-10-16T04:10:43;4.87;;;3.90;;
12332;SDS011;6232;48.094;11.288;2022-10-16T04:13:29;5.03;;;3.40;;
12332;SDS011;6232;48.094;11.288;2022-10-16T04:16:15;10.67;;;3.43;;
12332;SDS011;6232;48.094;11.288;2022-10-16T04:19:00;5.27;;;3.30;;
12332;SDS011;6232;48.094;11.288;2022-10-16T04:21:46;4.83;;;3.47;;
12332;SDS011;6232;48.094;11.288;2022-10-16T04:24:31;4.00;;;3.60;;
12332;SDS011;6232;48.094;11.288;2022-10-16T04:27:17;3.60;;;3.10;;
12332;SDS011;6232;48.094;11.288;2022-10-16T04:30:03;6.63;;;3.57;;
12332;SDS011;6232;48.094;11.288;2022-10-16T04:32:49;3.97;;;3.47;;
12332;SDS011;6232;48.094;11.288;2022-10-16T04:35:35;3.70;;;3.23;;
12332;SDS011;6232;48.094;11.288;2022-10-16T04:38:20;4.90;;;3.03;;
12332;SDS011;6232;48.094;11.288;2022-10-16T04:41:06;4.60;;;3.30;;
12332;SDS011;6232;48.094;11.288;2022-10-16T04:43:52;3.67;;;3.37;;
12332;SDS011;6232;48.094;11.288;2022-10-16T04:46:37;8.53;;;3.27;;
12332;SDS011;6232;48.094;11.288;2022-10-16T04:49:23;4.33;;;3.20;;
12332;SDS011;6232;48.094;11.288;2022-10-16T04:52:08;5.00;;;3.70;;
12332;SDS011;6232;48.094;11.288;2022-10-16T04:54:54;3.27;;;2.97;;
12332;SDS011;6232;48.094;11.288;2022-10-16T04:57:41;3.77;;;3.20;;
12332;SDS011;6232;48.094;11.288;2022-10-16T05:00:27;3.17;;;2.87;;
12332;SDS011;6232;48.094;11.288;2022-10-16T05:03:12;3.27;;;2.97;;
12332;SDS011;6232;48.094;11.288;2022-10-16T05:05:58;5.00;;;3.13;;
12332;SDS011;6232;48.094;11.288;2022-10-16T05:08:44;4.00;;;3.57;;
12332;SDS011;6232;48.094;11.288;2022-10-16T05:11:30;6.63;;;2.83;;
12332;SDS011;6232;48.094;11.288;2022-10-16T05:14:15;2.70;;;2.50;;
12332;SDS011;6232;48.094;11.288;2022-10-16T05:17:01;5.90;;;3.23;;
12332;SDS011;6232;48.094;11.288;2022-10-16T05:23:10;3.70;;;2.93;;
12332;SDS011;6232;48.094;11.288;2022-10-16T05:25:57;3.10;;;2.80;;
12332;SDS011;6232;48.094;11.288;2022-10-16T05:28:43;13.67;;;3.50;;
12332;SDS011;6232;48.094;11.288;2022-10-16T05:31:29;3.40;;;3.10;;
12332;SDS011;6232;48.094;11.288;2022-10-16T05:34:14;3.80;;;3.30;;
12332;SDS011;6232;48.094;11.288;2022-10-16T05:37:00;4.00;;;3.47;;
12332;SDS011;6232;48.094;11.288;2022-10-16T05:39:45;3.63;;;3.00;;
12332;SDS011;6232;48.094;11.288;2022-10-16T05:42:31;3.53;;;3.10;;
12332;SDS011;6232;48.094;11.288;2022-10-16T05:45:16;3.83;;;3.33;;
12332;SDS011;6232;48.094;11.288;2022-10-16T05:48:02;3.70;;;2.93;;
12332;SDS011;6232;48.094;11.288;2022-10-16T05:50:47;3.70;;;3.40;;
12332;SDS011;6232;48.094;11.288;2022-10-16T05:53:33;3.10;;;2.80;;
12332;SDS011;6232;48.094;11.288;2022-10-16T05:56:19;4.40;;;3.50;;
12332;SDS011;6232;48.094;11.288;2022-10-16T05:59:05;3.50;;;3.07;;
12332;SDS011;6232;48.094;11.288;2022-10-16T06:01:50;4.23;;;3.30;;
12332;SDS011;6232;48.094;11.288;2022-10-16T06:04:36;4.53;;;3.30;;
12332;SDS011;6232;48.094;11.288;2022-10-16T06:07:22;2.83;;;2.53;;
12332;SDS011;6232;48.094;11.288;2022-10-16T06:10:08;6.07;;;3.97;;
12332;SDS011;6232;48.094;11.288;2022-10-16T06:12:54;8.23;;;3.27;;
12332;SDS011;6232;48.094;11.288;2022-10-16T06:15:40;8.90;;;3.37;;
12332;SDS011;6232;48.094;11.288;2022-10-16T06:18:29;4.23;;;3.63;;
12332;SDS011;6232;48.094;11.288;2022-10-16T06:21:16;3.83;;;3.40;;
12332;SDS011;6232;48.094;11.288;2022-10-16T06:24:02;4.77;;;3.40;;
12332;SDS011;6232;48.094;11.288;2022-10-16T06:26:47;4.80;;;3.53;;
12332;SDS011;6232;48.094;11.288;2022-10-16T06:29:33;4.73;;;3.43;;
12332;SDS011;6232;48.094;11.288;2022-10-16T06:32:18;4.67;;;3.60;;
12332;SDS011;6232;48.094;11.288;2022-10-16T06:35:04;5.00;;;3.30;;
12332;SDS011;6232;48.094;11.288;2022-10-16T06:37:50;3.93;;;3.33;;
12332;SDS011;6232;48.094;11.288;2022-10-16T06:40:35;5.43;;;3.50;;
12332;SDS011;6232;48.094;11.288;2022-10-16T06:43:21;8.37;;;4.33;;
12332;SDS011;6232;48.094;11.288;2022-10-16T06:46:07;4.37;;;3.47;;
12332;SDS011;6232;48.094;11.288;2022-10-16T06:48:54;5.40;;;3.73;;
12332;SDS011;6232;48.094;11.288;2022-10-16T06:51:40;8.60;;;4.83;;
12332;SDS011;6232;48.094;11.288;2022-10-16T06:54:26;3.97;;;3.57;;
12332;SDS011;6232;48.094;11.288;2022-10-16T06:57:12;4.77;;;4.17;;
12332;SDS011;6232;48.094;11.288;2022-10-16T06:59:57;3.73;;;3.43;;
12332;SDS011;6232;48.094;11.288;2022-10-16T07:02:43;4.40;;;3.87;;
12332;SDS011;6232;48.094;11.288;2022-10-16T07:05:28;4.23;;;3.83;;
12332;SDS011;6232;48.094;11.288;2022-10-16T07:08:14;6.47;;;3.77;;
12332;SDS011;6232;48.094;11.288;2022-10-16T07:11:00;5.63;;;4.67;;
12332;SDS011;6232;48.094;11.288;2022-10-16T07:13:46;5.77;;;4.00;;
12332;SDS011;6232;48.094;11.288;2022-10-16T07:16:32;4.20;;;3.77;;
12332;SDS011;6232;48.094;11.288;2022-10-16T07:19:18;6.27;;;4.27;;
12332;SDS011;6232;48.094;11.288;2022-10-16T07:22:03;4.23;;;3.63;;
12332;SDS011;6232;48.094;11.288;2022-10-16T07:24:50;4.57;;;4.10;;
12332;SDS011;6232;48.094;11.288;2022-10-16T07:27:37;4.20;;;3.67;;
12332;SDS011;6232;48.094;11.288;2022-10-16T07:30:22;3.20;;;2.90;;
12332;SDS011;6232;48.094;11.288;2022-10-16T07:33:08;6.33;;;3.53;;
12332;SDS011;6232;48.094;11.288;2022-10-16T07:35:54;6.50;;;3.37;;
12332;SDS011;6232;48.094;11.288;2022-10-16T07:38:39;3.87;;;3.43;;
12332;SDS011;6232;48.094;11.288;2022-10-16T07:41:25;6.00;;;3.30;;
12332;SDS011;6232;48.094;11.288;2022-10-16T07:44:11;4.17;;;3.30;;
12332;SDS011;6232;48.094;11.288;2022-10-16T07:46:56;5.60;;;2.90;;
12332;SDS011;6232;48.094;11.288;2022-10-16T07:49:42;3.57;;;3.27;;
12332;SDS011;6232;48.094;11.288;2022-10-16T07:52:28;9.90;;;2.57;;
12332;SDS011;6232;48.094;11.288;2022-10-16T07:55:14;4.00;;;2.90;;
12332;SDS011;6232;48.094;11.288;2022-10-16T07:57:59;5.10;;;3.60;;
12332;SDS011;6232;48.094;11.288;2022-10-16T08:00:45;7.10;;;2.67;;
12332;SDS011;6232;48.094;11.288;2022-10-16T08:03:30;3.00;;;2.70;;
12332;SDS011;6232;48.094;11.288;2022-10-16T08:06:16;11.80;;;6.50;;
12332;SDS011;6232;48.094;11.288;2022-10-16T08:09:02;8.17;;;3.23;;
12332;SDS011;6232;48.094;11.288;2022-10-16T08:11:48;3.07;;;2.83;;
12332;SDS011;6232;48.094;11.288;2022-10-16T08:14:34;2.73;;;2.40;;
12332;SDS011;6232;48.094;11.288;2022-10-16T08:17:19;3.07;;;2.80;;
12332;SDS011;6232;48.094;11.288;2022-10-16T08:20:05;3.40;;;3.10;;
12332;SDS011;6232;48.094;11.288;2022-10-16T08:22:50;3.80;;;3.40;;
12332;SDS011;6232;48.094;11.288;2022-10-16T08:25:36;3.20;;;2.90;;
12332;SDS011;6232;48.094;11.288;2022-10-16T08:28:22;2.60;;;2.40;;
12332;SDS011;6232;48.094;11.288;2022-10-16T08:31:09;2.70;;;2.43;;
12332;SDS011;6232;48.094;11.288;2022-10-16T08:33:54;4.37;;;2.70;;
12332;SDS011;6232;48.094;11.288;2022-10-16T08:36:40;2.63;;;2.43;;
12332;SDS011;6232;48.094;11.288;2022-10-16T08:39:26;3.37;;;2.37;;
12332;SDS011;6232;48.094;11.288;2022-10-16T08:42:16;2.90;;;2.70;;
12332;SDS011;6232;48.094;11.288;2022-10-16T08:50:47;3.13;;;2.50;;
12332;SDS011;6232;48.094;11.288;2022-10-16T08:53:36;2.47;;;2.20;;
12332;SDS011;6232;48.094;11.288;2022-10-16T08:56:25;2.93;;;2.63;;
12332;SDS011;6232;48.094;11.288;2022-10-16T08:59:11;2.70;;;2.40;;
12332;SDS011;6232;48.094;11.288;2022-10-16T09:01:59;4.93;;;2.33;;
12332;SDS011;6232;48.094;11.288;2022-10-16T09:04:49;2.80;;;2.60;;
12332;SDS011;6232;48.094;11.288;2022-10-16T09:07:43;2.70;;;2.50;;
12332;SDS011;6232;48.094;11.288;2022-10-16T09:16:10;2.40;;;2.20;;
12332;SDS011;6232;48.094;11.288;2022-10-16T09:21:46;6.87;;;2.50;;
12332;SDS011;6232;48.094;11.288;2022-10-16T09:24:33;8.83;;;2.80;;
12332;SDS011;6232;48.094;11.288;2022-10-16T09:27:19;2.33;;;2.13;;
12332;SDS011;6232;48.094;11.288;2022-10-16T09:30:14;5.07;;;2.40;;
12332;SDS011;6232;48.094;11.288;2022-10-16T09:33:00;2.00;;;1.90;;
12332;SDS011;6232;48.094;11.288;2022-10-16T09:35:48;4.77;;;2.80;;
12332;SDS011;6232;48.094;11.288;2022-10-16T09:38:35;2.77;;;2.57;;
12332;SDS011;6232;48.094;11.288;2022-10-16T09:41:23;2.30;;;2.10;;
12332;SDS011;6232;48.094;11.288;2022-10-16T09:44:29;4.33;;;2.47;;
12332;SDS011;6232;48.094;11.288;2022-10-16T09:47:26;2.67;;;2.30;;
12332;SDS011;6232;48.094;11.288;2022-10-16T09:53:13;2.90;;;2.40;;
12332;SDS011;6232;48.094;11.288;2022-10-16T09:55:59;3.03;;;2.47;;
12332;SDS011;6232;48.094;11.288;2022-10-16T09:58:49;2.70;;;2.50;;
12332;SDS011;6232;48.094;11.288;2022-10-16T10:01:37;2.53;;;2.20;;
12332;SDS011;6232;48.094;11.288;2022-10-16T10:04:23;2.70;;;2.33;;
12332;SDS011;6232;48.094;11.288;2022-10-16T10:07:17;2.30;;;1.90;;
12332;SDS011;6232;48.094;11.288;2022-10-16T10:10:04;3.23;;;2.10;;
12332;SDS011;6232;48.094;11.288;2022-10-16T10:12:50;2.00;;;1.80;;
12332;SDS011;6232;48.094;11.288;2022-10-16T10:15:36;3.13;;;2.00;;
12332;SDS011;6232;48.094;11.288;2022-10-16T10:18:26;2.70;;;1.80;;
12332;SDS011;6232;48.094;11.288;2022-10-16T10:21:12;2.47;;;1.90;;
12332;SDS011;6232;48.094;11.288;2022-10-16T10:23:59;9.20;;;2.30;;
12332;SDS011;6232;48.094;11.288;2022-10-16T10:26:54;3.50;;;1.80;;
12332;SDS011;6232;48.094;11.288;2022-10-16T10:33:05;2.97;;;1.93;;
12332;SDS011;6232;48.094;11.288;2022-10-16T10:38:40;1.77;;;1.67;;
12332;SDS011;6232;48.094;11.288;2022-10-16T10:52:54;3.13;;;1.20;;
12332;SDS011;6232;48.094;11.288;2022-10-16T10:55:45;1.13;;;1.03;;
12332;SDS011;6232;48.094;11.288;2022-10-16T11:01:26;1.83;;;1.10;;
12332;SDS011;6232;48.094;11.288;2022-10-16T11:07:15;1.67;;;1.37;;
12332;SDS011;6232;48.094;11.288;2022-10-16T11:10:25;1.30;;;1.20;;
12332;SDS011;6232;48.094;11.288;2022-10-16T11:13:17;1.30;;;1.20;;
12332;SDS011;6232;48.094;11.288;2022-10-16T11:16:21;2.37;;;1.40;;
12332;SDS011;6232;48.094;11.288;2022-10-16T11:22:15;0.97;;;0.87;;
12332;SDS011;6232;48.094;11.288;2022-10-16T11:37:12;1.47;;;0.90;;
12332;SDS011;6232;48.094;11.288;2022-10-16T11:40:03;1.10;;;1.00;;
12332;SDS011;6232;48.094;11.288;2022-10-16T11:42:52;0.90;;;0.90;;
12332;SDS011;6232;48.094;11.288;2022-10-16T11:45:43;2.03;;;0.97;;
12332;SDS011;6232;48.094;11.288;2022-10-16T11:48:33;0.83;;;0.80;;
12332;SDS011;6232;48.094;11.288;2022-10-16T11:51:31;1.35;;;0.90;;
12332;SDS011;6232;48.094;11.288;2022-10-16T11:55:05;0.70;;;0.70;;
12332;SDS011;6232;48.094;11.288;2022-10-16T11:57:26;3.83;;;0.90;;
12332;SDS011;6232;48.094;11.288;2022-10-16T12:00:28;3.10;;;1.13;;
12332;SDS011;6232;48.094;11.288;2022-10-16T12:03:21;1.20;;;1.00;;
12332;SDS011;6232;48.094;11.288;2022-10-16T12:06:13;1.10;;;1.00;;
12332;SDS011;6232;48.094;11.288;2022-10-16T12:09:03;2.30;;;0.95;;
12332;SDS011;6232;48.094;11.288;2022-10-16T12:11:49;3.90;;;1.27;;
12332;SDS011;6232;48.094;11.288;2022-10-16T12:14:36;1.33;;;1.08;;
12332;SDS011;6232;48.094;11.288;2022-10-16T12:17:23;0.90;;;0.80;;
12332;SDS011;6232;48.094;11.288;2022-10-16T12:25:43;1.30;;;0.93;;
12332;SDS011;6232;48.094;11.288;2022-10-16T12:28:38;1.55;;;0.85;;
12332;SDS011;6232;48.094;11.288;2022-10-16T12:31:25;5.65;;;1.00;;
12332;SDS011;6232;48.094;11.288;2022-10-16T12:34:22;2.85;;;0.80;;
12332;SDS011;6232;48.094;11.288;2022-10-16T12:37:15;1.02;;;0.93;;
12332;SDS011;6232;48.094;11.288;2022-10-16T12:40:15;1.40;;;1.00;;
12332;SDS011;6232;48.094;11.288;2022-10-16T12:46:20;1.02;;;0.88;;
12332;SDS011;6232;48.094;11.288;2022-10-16T12:51:58;0.95;;;0.85;;
12332;SDS011;6232;48.094;11.288;2022-10-16T12:54:44;1.45;;;1.10;;
12332;SDS011;6232;48.094;11.288;2022-10-16T12:57:36;1.10;;;0.80;;
12332;SDS011;6232;48.094;11.288;2022-10-16T13:06:34;1.08;;;0.98;;
12332;SDS011;6232;48.094;11.288;2022-10-16T13:12:20;0.80;;;0.80;;
12332;SDS011;6232;48.094;11.288;2022-10-16T13:15:19;1.25;;;0.90;;
12332;SDS011;6232;48.094;11.288;2022-10-16T13:21:16;1.05;;;1.00;;
12332;SDS011;6232;48.094;11.288;2022-10-16T13:27:11;1.00;;;0.90;;
12332;SDS011;6232;48.094;11.288;2022-10-16T13:36:23;2.25;;;0.98;;
12332;SDS011;6232;48.094;11.288;2022-10-16T13:39:30;1.55;;;1.13;;
12332;SDS011;6232;48.094;11.288;2022-10-16T13:42:18;1.10;;;1.00;;
12332;SDS011;6232;48.094;11.288;2022-10-16T13:45:05;1.35;;;0.90;;
12332;SDS011;6232;48.094;11.288;2022-10-16T13:48:03;1.60;;;1.02;;
12332;SDS011;6232;48.094;11.288;2022-10-16T13:53:54;4.17;;;1.00;;
12332;SDS011;6232;48.094;11.288;2022-10-16T13:56:40;1.10;;;0.80;;
12332;SDS011;6232;48.094;11.288;2022-10-16T13:59:27;1.17;;;0.95;;
12332;SDS011;6232;48.094;11.288;2022-10-16T14:02:22;0.80;;;0.80;;
12332;SDS011;6232;48.094;11.288;2022-10-16T14:05:10;4.13;;;0.88;;
12332;SDS011;6232;48.094;11.288;2022-10-16T14:07:56;1.75;;;1.00;;
12332;SDS011;6232;48.094;11.288;2022-10-16T14:10:42;4.78;;;1.33;;
12332;SDS011;6232;48.094;11.288;2022-10-16T14:13:39;1.35;;;1.08;;
12332;SDS011;6232;48.094;11.288;2022-10-16T14:16:29;0.98;;;0.88;;
12332;SDS011;6232;48.094;11.288;2022-10-16T14:19:20;0.90;;;0.90;;
12332;SDS011;6232;48.094;11.288;2022-10-16T14:30:59;1.40;;;1.13;;
12332;SDS011;6232;48.094;11.288;2022-10-16T14:33:44;6.63;;;0.90;;
12332;SDS011;6232;48.094;11.288;2022-10-16T14:36:30;1.00;;;0.90;;
12332;SDS011;6232;48.094;11.288;2022-10-16T14:39:17;1.05;;;0.98;;
12332;SDS011;6232;48.094;11.288;2022-10-16T14:42:04;2.03;;;1.20;;
12332;SDS011;6232;48.094;11.288;2022-10-16T14:44:50;0.95;;;0.88;;
12332;SDS011;6232;48.094;11.288;2022-10-16T14:47:45;1.67;;;1.00;;
12332;SDS011;6232;48.094;11.288;2022-10-16T14:50:33;1.30;;;1.17;;
12332;SDS011;6232;48.094;11.288;2022-10-16T14:53:19;2.53;;;1.03;;
12332;SDS011;6232;48.094;11.288;2022-10-16T14:56:08;3.73;;;1.20;;
12332;SDS011;6232;48.094;11.288;2022-10-16T14:58:54;1.30;;;1.20;;
12332;SDS011;6232;48.094;11.288;2022-10-16T15:01:40;3.90;;;1.17;;
12332;SDS011;6232;48.094;11.288;2022-10-16T15:04:27;1.90;;;1.70;;
12332;SDS011;6232;48.094;11.288;2022-10-16T15:07:13;1.30;;;1.20;;
12332;SDS011;6232;48.094;11.288;2022-10-16T15:09:58;1.10;;;1.00;;
12332;SDS011;6232;48.094;11.288;2022-10-16T15:12:44;1.30;;;0.93;;
12332;SDS011;6232;48.094;11.288;2022-10-16T15:15:37;1.87;;;1.50;;
12332;SDS011;6232;48.094;11.288;2022-10-16T15:18:23;1.20;;;1.10;;
12332;SDS011;6232;48.094;11.288;2022-10-16T15:21:12;4.00;;;1.50;;
12332;SDS011;6232;48.094;11.288;2022-10-16T15:24:02;6.43;;;1.37;;
12332;SDS011;6232;48.094;11.288;2022-10-16T15:26:48;3.07;;;1.60;;
12332;SDS011;6232;48.094;11.288;2022-10-16T15:29:34;1.63;;;1.30;;
12332;SDS011;6232;48.094;11.288;2022-10-16T15:32:20;2.90;;;2.10;;
12332;SDS011;6232;48.094;11.288;2022-10-16T15:35:07;6.00;;;1.80;;
12332;SDS011;6232;48.094;11.288;2022-10-16T15:37:53;2.00;;;1.60;;
12332;SDS011;6232;48.094;11.288;2022-10-16T15:40:39;1.80;;;1.43;;
12332;SDS011;6232;48.094;11.288;2022-10-16T15:43:25;2.53;;;1.60;;
12332;SDS011;6232;48.094;11.288;2022-10-16T15:46:16;4.40;;;1.70;;
12332;SDS011;6232;48.094;11.288;2022-10-16T15:49:02;1.90;;;1.70;;
12332;SDS011;6232;48.094;11.288;2022-10-16T15:51:48;5.00;;;1.53;;
12332;SDS011;6232;48.094;11.288;2022-10-16T15:54:33;1.40;;;1.30;;
12332;SDS011;6232;48.094;11.288;2022-10-16T15:57:19;10.40;;;7.27;;
12332;SDS011;6232;48.094;11.288;2022-10-16T16:00:05;14.90;;;9.07;;
12332;SDS011;6232;48.094;11.288;2022-10-16T16:02:31;5.33;;;3.50;;
12332;SDS011;6232;48.094;11.288;2022-10-16T16:05:10;5.57;;;2.00;;
12332;SDS011;6232;48.094;11.288;2022-10-16T16:07:36;1.80;;;1.60;;
12332;SDS011;6232;48.094;11.288;2022-10-16T16:10:03;4.43;;;1.93;;
12332;SDS011;6232;48.094;11.288;2022-10-16T16:12:28;25.23;;;8.73;;
12332;SDS011;6232;48.094;11.288;2022-10-16T16:14:54;15.30;;;6.10;;
12332;SDS011;6232;48.094;11.288;2022-10-16T16:17:19;4.50;;;2.37;;
12332;SDS011;6232;48.094;11.288;2022-10-16T16:19:45;6.60;;;2.20;;
12332;SDS011;6232;48.094;11.288;2022-10-16T16:22:10;2.07;;;1.80;;
12332;SDS011;6232;48.094;11.288;2022-10-16T16:24:36;2.40;;;2.20;;
12332;SDS011;6232;48.094;11.288;2022-10-16T16:27:01;4.17;;;3.03;;
12332;SDS011;6232;48.094;11.288;2022-10-16T16:29:26;4.63;;;3.27;;
12332;SDS011;6232;48.094;11.288;2022-10-16T16:31:52;8.33;;;4.90;;
12332;SDS011;6232;48.094;11.288;2022-10-16T16:34:42;8.50;;;3.60;;
12332;SDS011;6232;48.094;11.288;2022-10-16T16:37:28;10.03;;;3.20;;
12332;SDS011;6232;48.094;11.288;2022-10-16T16:40:13;6.77;;;2.93;;
12332;SDS011;6232;48.094;11.288;2022-10-16T16:42:59;4.63;;;2.03;;
12332;SDS011;6232;48.094;11.288;2022-10-16T16:45:44;6.70;;;2.10;;
12332;SDS011;6232;48.094;11.288;2022-10-16T16:48:31;2.80;;;2.10;;
12332;SDS011;6232;48.094;11.288;2022-10-16T16:51:17;5.10;;;2.07;;
12332;SDS011;6232;48.094;11.288;2022-10-16T16:54:04;6.30;;;2.80;;
12332;SDS011;6232;48.094;11.288;2022-10-16T16:56:52;5.37;;;3.23;;
12332;SDS011;6232;48.094;11.288;2022-10-16T16:59:37;4.67;;;3.53;;
12332;SDS011;6232;48.094;11.288;2022-10-16T17:02:23;5.53;;;2.90;;
12332;SDS011;6232;48.094;11.288;2022-10-16T17:05:09;13.37;;;3.07;;
12332;SDS011;6232;48.094;11.288;2022-10-16T17:07:54;3.37;;;2.63;;
12332;SDS011;6232;48.094;11.288;2022-10-16T17:10:43;3.00;;;2.10;;
12332;SDS011;6232;48.094;11.288;2022-10-16T17:13:30;3.20;;;2.20;;
12332;SDS011;6232;48.094;11.288;2022-10-16T17:16:16;11.50;;;4.33;;
12332;SDS011;6232;48.094;11.288;2022-10-16T17:19:02;7.00;;;3.03;;
12332;SDS011;6232;48.094;11.288;2022-10-16T17:21:48;12.23;;;3.20;;
12332;SDS011;6232;48.094;11.288;2022-10-16T17:24:34;6.43;;;3.43;;
12332;SDS011;6232;48.094;11.288;2022-10-16T17:27:20;6.47;;;3.20;;
12332;SDS011;6232;48.094;11.288;2022-10-16T17:30:05;3.80;;;2.63;;
12332;SDS011;6232;48.094;11.288;2022-10-16T17:32:51;8.80;;;3.30;;
12332;SDS011;6232;48.094;11.288;2022-10-16T17:35:41;6.93;;;3.10;;
12332;SDS011;6232;48.094;11.288;2022-10-16T17:38:27;2.90;;;2.13;;
12332;SDS011;6232;48.094;11.288;2022-10-16T17:41:13;6.10;;;2.83;;
12332;SDS011;6232;48.094;11.288;2022-10-16T17:43:59;4.13;;;2.50;;
12332;SDS011;6232;48.094;11.288;2022-10-16T17:46:45;3.77;;;2.20;;
12332;SDS011;6232;48.094;11.288;2022-10-16T17:49:31;3.73;;;2.30;;
12332;SDS011;6232;48.094;11.288;2022-10-16T17:52:17;4.70;;;2.07;;
12332;SDS011;6232;48.094;11.288;2022-10-16T17:55:03;5.03;;;2.40;;
12332;SDS011;6232;48.094;11.288;2022-10-16T17:57:48;3.60;;;1.83;;
12332;SDS011;6232;48.094;11.288;2022-10-16T18:00:34;4.93;;;3.20;;
12332;SDS011;6232;48.094;11.288;2022-10-16T18:03:19;14.93;;;4.20;;
12332;SDS011;6232;48.094;11.288;2022-10-16T18:06:05;5.40;;;2.30;;
12332;SDS011;6232;48.094;11.288;2022-10-16T18:08:51;4.70;;;2.50;;
12332;SDS011;6232;48.094;11.288;2022-10-16T18:11:37;5.37;;;2.13;;
12332;SDS011;6232;48.094;11.288;2022-10-16T18:14:23;4.10;;;2.20;;
12332;SDS011;6232;48.094;11.288;2022-10-16T18:17:09;4.40;;;3.50;;
12332;SDS011;6232;48.094;11.288;2022-10-16T18:19:54;7.20;;;2.20;;
12332;SDS011;6232;48.094;11.288;2022-10-16T18:22:40;7.50;;;3.10;;
12332;SDS011;6232;48.094;11.288;2022-10-16T18:25:25;1.90;;;1.73;;
12332;SDS011;6232;48.094;11.288;2022-10-16T18:28:11;8.93;;;3.17;;
12332;SDS011;6232;48.094;11.288;2022-10-16T18:30:57;9.90;;;2.87;;
12332;SDS011;6232;48.094;11.288;2022-10-16T18:33:43;14.60;;;4.97;;
12332;SDS011;6232;48.094;11.288;2022-10-16T18:36:33;21.63;;;6.17;;
12332;SDS011;6232;48.094;11.288;2022-10-16T18:39:19;9.17;;;2.80;;
12332;SDS011;6232;48.094;11.288;2022-10-16T18:42:07;9.23;;;2.30;;
12332;SDS011;6232;48.094;11.288;2022-10-16T18:44:53;3.23;;;2.20;;
12332;SDS011;6232;48.094;11.288;2022-10-16T18:47:38;7.40;;;3.77;;
12332;SDS011;6232;48.094;11.288;2022-10-16T18:50:24;7.20;;;2.60;;
12332;SDS011;6232;48.094;11.288;2022-10-16T18:53:10;5.10;;;2.77;;